sensor_id;sensor_type;location;lat;lon;timestamp;P1;durP1;ratioP1;P2;durP2;ratioP2
40995;SDS011;26723;57.478;12.066;2023-07-30T00:01:29;0.20;;;0.20;;
40995;SDS011;26723;57.478;12.066;2023-07-30T00:04:39;0.40;;;0.40;;
40995;SDS011;26723;57.478;12.066;2023-07-30T00:07:47;1.00;;;0.40;;
40995;SDS011;26723;57.478;12.066;2023-07-30T00:10:56;0.30;;;0.30;;
40995;SDS011;26723;57.478;12.066;2023-07-30T00:14:05;0.50;;;0.32;;
40995;SDS011;26723;57.478;12.066;2023-07-30T00:17:14;0.40;;;0.40;;
40995;SDS011;26723;57.478;12.066;2023-07-30T00:20:23;1.58;;;0.32;;
40995;SDS011;26723;57.478;12.066;2023-07-30T00:23:33;0.20;;;0.20;;
40995;SDS011;26723;57.478;12.066;2023-07-30T00:26:41;0.20;;;0.20;;
40995;SDS011;26723;57.478;12.066;2023-07-30T00:29:50;1.30;;;0.40;;
40995;SDS011;26723;57.478;12.066;2023-07-30T00:32:58;0.40;;;0.40;;
40995;SDS011;26723;57.478;12.066;2023-07-30T00:36:08;0.93;;;0.28;;
40995;SDS011;26723;57.478;12.066;2023-07-30T00:39:17;0.60;;;0.60;;
40995;SDS011;26723;57.478;12.066;2023-07-30T00:42:26;0.40;;;0.40;;
40995;SDS011;26723;57.478;12.066;2023-07-30T00:45:34;0.40;;;0.40;;
40995;SDS011;26723;57.478;12.066;2023-07-30T00:48:44;0.47;;;0.47;;
40995;SDS011;26723;57.478;12.066;2023-07-30T00:51:54;0.80;;;0.80;;
40995;SDS011;26723;57.478;12.066;2023-07-30T00:55:04;1.63;;;0.40;;
40995;SDS011;26723;57.478;12.066;2023-07-30T00:58:14;0.50;;;0.50;;
40995;SDS011;26723;57.478;12.066;2023-07-30T01:01:23;0.25;;;0.25;;
40995;SDS011;26723;57.478;12.066;2023-07-30T01:04:32;0.40;;;0.40;;
40995;SDS011;26723;57.478;12.066;2023-07-30T01:07:42;0.28;;;0.28;;
40995;SDS011;26723;57.478;12.066;2023-07-30T01:10:50;0.15;;;0.15;;
40995;SDS011;26723;57.478;12.066;2023-07-30T01:13:59;0.30;;;0.30;;
40995;SDS011;26723;57.478;12.066;2023-07-30T01:17:11;0.20;;;0.20;;
40995;SDS011;26723;57.478;12.066;2023-07-30T01:20:20;0.20;;;0.20;;
40995;SDS011;26723;57.478;12.066;2023-07-30T01:23:30;1.33;;;0.82;;
40995;SDS011;26723;57.478;12.066;2023-07-30T01:26:40;0.35;;;0.35;;
40995;SDS011;26723;57.478;12.066;2023-07-30T01:29:53;0.30;;;0.30;;
40995;SDS011;26723;57.478;12.066;2023-07-30T01:33:07;0.50;;;0.50;;
40995;SDS011;26723;57.478;12.066;2023-07-30T01:36:18;1.02;;;0.43;;
40995;SDS011;26723;57.478;12.066;2023-07-30T01:39:31;0.73;;;0.68;;
40995;SDS011;26723;57.478;12.066;2023-07-30T01:42:40;0.60;;;0.60;;
40995;SDS011;26723;57.478;12.066;2023-07-30T01:45:49;0.32;;;0.32;;
40995;SDS011;26723;57.478;12.066;2023-07-30T01:48:58;0.57;;;0.57;;
40995;SDS011;26723;57.478;12.066;2023-07-30T01:52:07;0.43;;;0.43;;
40995;SDS011;26723;57.478;12.066;2023-07-30T01:55:18;0.50;;;0.50;;
40995;SDS011;26723;57.478;12.066;2023-07-30T01:58:26;0.43;;;0.40;;
40995;SDS011;26723;57.478;12.066;2023-07-30T02:01:37;0.43;;;0.43;;
40995;SDS011;26723;57.478;12.066;2023-07-30T02:04:47;0.50;;;0.50;;
40995;SDS011;26723;57.478;12.066;2023-07-30T02:07:55;0.60;;;0.60;;
40995;SDS011;26723;57.478;12.066;2023-07-30T02:11:05;0.60;;;0.60;;
40995;SDS011;26723;57.478;12.066;2023-07-30T02:14:14;0.25;;;0.25;;
40995;SDS011;26723;57.478;12.066;2023-07-30T02:17:22;0.60;;;0.60;;
40995;SDS011;26723;57.478;12.066;2023-07-30T02:20:31;0.90;;;0.90;;
40995;SDS011;26723;57.478;12.066;2023-07-30T02:23:39;0.60;;;0.60;;
40995;SDS011;26723;57.478;12.066;2023-07-30T02:26:49;1.25;;;0.80;;
40995;SDS011;26723;57.478;12.066;2023-07-30T02:29:58;0.60;;;0.60;;
40995;SDS011;26723;57.478;12.066;2023-07-30T02:33:06;2.50;;;0.60;;
40995;SDS011;26723;57.478;12.066;2023-07-30T02:36:15;0.30;;;0.30;;
40995;SDS011;26723;57.478;12.066;2023-07-30T02:39:23;0.85;;;0.85;;
40995;SDS011;26723;57.478;12.066;2023-07-30T02:42:33;0.63;;;0.63;;
40995;SDS011;26723;57.478;12.066;2023-07-30T02:45:43;0.50;;;0.50;;
40995;SDS011;26723;57.478;12.066;2023-07-30T02:48:55;0.60;;;0.60;;
40995;SDS011;26723;57.478;12.066;2023-07-30T02:52:03;0.60;;;0.60;;
40995;SDS011;26723;57.478;12.066;2023-07-30T02:55:12;0.60;;;0.60;;
40995;SDS011;26723;57.478;12.066;2023-07-30T02:58:24;0.88;;;0.88;;
40995;SDS011;26723;57.478;12.066;2023-07-30T03:01:32;0.40;;;0.40;;
40995;SDS011;26723;57.478;12.066;2023-07-30T03:04:41;0.50;;;0.50;;
40995;SDS011;26723;57.478;12.066;2023-07-30T03:07:50;0.70;;;0.70;;
40995;SDS011;26723;57.478;12.066;2023-07-30T03:10:58;1.58;;;1.05;;
40995;SDS011;26723;57.478;12.066;2023-07-30T03:14:08;1.40;;;0.57;;
40995;SDS011;26723;57.478;12.066;2023-07-30T03:17:17;0.50;;;0.50;;
40995;SDS011;26723;57.478;12.066;2023-07-30T03:20:26;4.60;;;0.75;;
40995;SDS011;26723;57.478;12.066;2023-07-30T03:23:34;0.95;;;0.63;;
40995;SDS011;26723;57.478;12.066;2023-07-30T03:26:43;1.73;;;0.43;;
40995;SDS011;26723;57.478;12.066;2023-07-30T03:29:53;1.75;;;0.40;;
40995;SDS011;26723;57.478;12.066;2023-07-30T03:33:02;0.60;;;0.60;;
40995;SDS011;26723;57.478;12.066;2023-07-30T03:36:10;0.55;;;0.55;;
40995;SDS011;26723;57.478;12.066;2023-07-30T03:39:19;1.40;;;0.80;;
40995;SDS011;26723;57.478;12.066;2023-07-30T03:42:29;1.75;;;0.77;;
40995;SDS011;26723;57.478;12.066;2023-07-30T03:45:39;0.60;;;0.60;;
40995;SDS011;26723;57.478;12.066;2023-07-30T03:48:47;0.60;;;0.60;;
40995;SDS011;26723;57.478;12.066;2023-07-30T03:51:56;0.50;;;0.50;;
40995;SDS011;26723;57.478;12.066;2023-07-30T03:55:04;0.60;;;0.60;;
40995;SDS011;26723;57.478;12.066;2023-07-30T03:58:14;1.27;;;0.57;;
40995;SDS011;26723;57.478;12.066;2023-07-30T04:01:23;0.38;;;0.38;;
40995;SDS011;26723;57.478;12.066;2023-07-30T04:04:32;0.55;;;0.55;;
40995;SDS011;26723;57.478;12.066;2023-07-30T04:07:42;0.60;;;0.60;;
40995;SDS011;26723;57.478;12.066;2023-07-30T04:10:50;1.67;;;0.68;;
40995;SDS011;26723;57.478;12.066;2023-07-30T04:14:00;0.70;;;0.70;;
40995;SDS011;26723;57.478;12.066;2023-07-30T04:17:12;0.77;;;0.77;;
40995;SDS011;26723;57.478;12.066;2023-07-30T04:20:21;1.92;;;0.32;;
40995;SDS011;26723;57.478;12.066;2023-07-30T04:23:30;0.50;;;0.50;;
40995;SDS011;26723;57.478;12.066;2023-07-30T04:26:38;0.98;;;0.80;;
40995;SDS011;26723;57.478;12.066;2023-07-30T04:29:47;2.35;;;0.80;;
40995;SDS011;26723;57.478;12.066;2023-07-30T04:32:57;0.60;;;0.60;;
40995;SDS011;26723;57.478;12.066;2023-07-30T04:36:06;1.05;;;1.05;;
40995;SDS011;26723;57.478;12.066;2023-07-30T04:39:15;0.80;;;0.80;;
40995;SDS011;26723;57.478;12.066;2023-07-30T04:42:24;0.57;;;0.57;;
40995;SDS011;26723;57.478;12.066;2023-07-30T04:45:32;1.02;;;0.85;;
40995;SDS011;26723;57.478;12.066;2023-07-30T04:48:42;0.80;;;0.80;;
40995;SDS011;26723;57.478;12.066;2023-07-30T04:51:53;0.68;;;0.68;;
40995;SDS011;26723;57.478;12.066;2023-07-30T04:55:01;0.57;;;0.57;;
40995;SDS011;26723;57.478;12.066;2023-07-30T04:58:10;1.02;;;1.02;;
40995;SDS011;26723;57.478;12.066;2023-07-30T05:01:19;0.70;;;0.70;;
40995;SDS011;26723;57.478;12.066;2023-07-30T05:04:29;1.08;;;0.70;;
40995;SDS011;26723;57.478;12.066;2023-07-30T05:07:38;0.85;;;0.82;;
40995;SDS011;26723;57.478;12.066;2023-07-30T05:10:46;0.80;;;0.80;;
40995;SDS011;26723;57.478;12.066;2023-07-30T05:13:57;1.67;;;0.90;;
40995;SDS011;26723;57.478;12.066;2023-07-30T05:17:05;0.80;;;0.80;;
40995;SDS011;26723;57.478;12.066;2023-07-30T05:20:15;2.05;;;0.93;;
40995;SDS011;26723;57.478;12.066;2023-07-30T05:23:24;0.70;;;0.70;;
40995;SDS011;26723;57.478;12.066;2023-07-30T05:26:32;1.10;;;1.10;;
40995;SDS011;26723;57.478;12.066;2023-07-30T05:29:41;0.77;;;0.77;;
40995;SDS011;26723;57.478;12.066;2023-07-30T05:32:51;0.80;;;0.80;;
40995;SDS011;26723;57.478;12.066;2023-07-30T05:36:01;1.48;;;0.82;;
40995;SDS011;26723;57.478;12.066;2023-07-30T05:39:10;1.05;;;1.05;;
40995;SDS011;26723;57.478;12.066;2023-07-30T05:42:18;0.70;;;0.70;;
40995;SDS011;26723;57.478;12.066;2023-07-30T05:45:27;0.98;;;0.98;;
40995;SDS011;26723;57.478;12.066;2023-07-30T05:48:36;1.00;;;1.00;;
40995;SDS011;26723;57.478;12.066;2023-07-30T05:51:47;0.90;;;0.88;;
40995;SDS011;26723;57.478;12.066;2023-07-30T05:54:56;1.00;;;1.00;;
40995;SDS011;26723;57.478;12.066;2023-07-30T05:58:04;1.10;;;1.00;;
40995;SDS011;26723;57.478;12.066;2023-07-30T06:01:13;0.82;;;0.82;;
40995;SDS011;26723;57.478;12.066;2023-07-30T06:04:21;1.08;;;0.95;;
40995;SDS011;26723;57.478;12.066;2023-07-30T06:07:31;1.10;;;1.10;;
40995;SDS011;26723;57.478;12.066;2023-07-30T06:10:42;1.38;;;1.00;;
40995;SDS011;26723;57.478;12.066;2023-07-30T06:13:51;1.25;;;1.17;;
40995;SDS011;26723;57.478;12.066;2023-07-30T06:16:59;1.85;;;1.65;;
40995;SDS011;26723;57.478;12.066;2023-07-30T06:20:08;0.75;;;0.75;;
40995;SDS011;26723;57.478;12.066;2023-07-30T06:23:19;1.38;;;1.30;;
40995;SDS011;26723;57.478;12.066;2023-07-30T06:26:28;1.02;;;0.70;;
40995;SDS011;26723;57.478;12.066;2023-07-30T06:29:36;0.90;;;0.90;;
40995;SDS011;26723;57.478;12.066;2023-07-30T06:32:45;0.90;;;0.90;;
40995;SDS011;26723;57.478;12.066;2023-07-30T06:35:53;1.10;;;1.10;;
40995;SDS011;26723;57.478;12.066;2023-07-30T06:39:03;1.00;;;1.00;;
40995;SDS011;26723;57.478;12.066;2023-07-30T06:42:12;1.00;;;1.00;;
40995;SDS011;26723;57.478;12.066;2023-07-30T06:45:22;0.73;;;0.68;;
40995;SDS011;26723;57.478;12.066;2023-07-30T06:48:30;1.00;;;1.00;;
40995;SDS011;26723;57.478;12.066;2023-07-30T06:51:39;1.75;;;1.25;;
40995;SDS011;26723;57.478;12.066;2023-07-30T06:54:50;1.10;;;1.10;;
40995;SDS011;26723;57.478;12.066;2023-07-30T06:57:58;1.17;;;1.00;;
40995;SDS011;26723;57.478;12.066;2023-07-30T07:01:07;0.90;;;0.90;;
40995;SDS011;26723;57.478;12.066;2023-07-30T07:04:15;1.60;;;0.90;;
40995;SDS011;26723;57.478;12.066;2023-07-30T07:07:24;1.27;;;0.75;;
40995;SDS011;26723;57.478;12.066;2023-07-30T07:10:34;0.82;;;0.82;;
40995;SDS011;26723;57.478;12.066;2023-07-30T07:13:45;1.20;;;0.80;;
40995;SDS011;26723;57.478;12.066;2023-07-30T07:16:53;0.88;;;0.88;;
40995;SDS011;26723;57.478;12.066;2023-07-30T07:20:03;1.00;;;0.90;;
40995;SDS011;26723;57.478;12.066;2023-07-30T07:23:13;1.65;;;1.08;;
40995;SDS011;26723;57.478;12.066;2023-07-30T07:26:23;0.90;;;0.90;;
40995;SDS011;26723;57.478;12.066;2023-07-30T07:29:32;0.80;;;0.80;;
40995;SDS011;26723;57.478;12.066;2023-07-30T07:32:40;0.82;;;0.80;;
40995;SDS011;26723;57.478;12.066;2023-07-30T07:35:49;1.08;;;1.08;;
40995;SDS011;26723;57.478;12.066;2023-07-30T07:38:57;1.10;;;1.10;;
40995;SDS011;26723;57.478;12.066;2023-07-30T07:42:07;1.05;;;0.82;;
40995;SDS011;26723;57.478;12.066;2023-07-30T07:45:16;0.90;;;0.90;;
40995;SDS011;26723;57.478;12.066;2023-07-30T07:48:25;1.00;;;1.00;;
40995;SDS011;26723;57.478;12.066;2023-07-30T07:51:34;0.90;;;0.90;;
40995;SDS011;26723;57.478;12.066;2023-07-30T07:54:43;1.23;;;0.93;;
40995;SDS011;26723;57.478;12.066;2023-07-30T07:57:53;0.93;;;0.93;;
40995;SDS011;26723;57.478;12.066;2023-07-30T08:01:02;0.90;;;0.90;;
40995;SDS011;26723;57.478;12.066;2023-07-30T08:04:11;1.45;;;1.25;;
40995;SDS011;26723;57.478;12.066;2023-07-30T08:07:19;0.98;;;0.88;;
40995;SDS011;26723;57.478;12.066;2023-07-30T08:10:28;1.50;;;1.02;;
40995;SDS011;26723;57.478;12.066;2023-07-30T08:13:38;0.57;;;0.57;;
40995;SDS011;26723;57.478;12.066;2023-07-30T08:16:46;0.85;;;0.85;;
40995;SDS011;26723;57.478;12.066;2023-07-30T08:19:55;0.70;;;0.70;;
40995;SDS011;26723;57.478;12.066;2023-07-30T08:23:03;2.20;;;1.05;;
40995;SDS011;26723;57.478;12.066;2023-07-30T08:26:12;0.80;;;0.80;;
40995;SDS011;26723;57.478;12.066;2023-07-30T08:29:22;0.90;;;0.90;;
40995;SDS011;26723;57.478;12.066;2023-07-30T08:32:30;0.80;;;0.80;;
40995;SDS011;26723;57.478;12.066;2023-07-30T08:35:44;0.90;;;0.90;;
40995;SDS011;26723;57.478;12.066;2023-07-30T08:38:53;4.15;;;1.02;;
40995;SDS011;26723;57.478;12.066;2023-07-30T08:42:02;0.80;;;0.80;;
40995;SDS011;26723;57.478;12.066;2023-07-30T08:45:12;1.95;;;0.80;;
40995;SDS011;26723;57.478;12.066;2023-07-30T08:48:21;1.90;;;0.60;;
40995;SDS011;26723;57.478;12.066;2023-07-30T08:51:29;0.50;;;0.50;;
40995;SDS011;26723;57.478;12.066;2023-07-30T08:54:39;0.80;;;0.80;;
40995;SDS011;26723;57.478;12.066;2023-07-30T08:57:50;1.02;;;0.73;;
40995;SDS011;26723;57.478;12.066;2023-07-30T09:01:01;1.17;;;0.80;;
40995;SDS011;26723;57.478;12.066;2023-07-30T09:04:13;0.60;;;0.60;;
40995;SDS011;26723;57.478;12.066;2023-07-30T09:07:25;1.05;;;0.90;;
40995;SDS011;26723;57.478;12.066;2023-07-30T09:10:33;0.75;;;0.75;;
40995;SDS011;26723;57.478;12.066;2023-07-30T09:13:42;0.75;;;0.75;;
40995;SDS011;26723;57.478;12.066;2023-07-30T09:16:55;0.77;;;0.77;;
40995;SDS011;26723;57.478;12.066;2023-07-30T09:20:05;0.60;;;0.60;;
40995;SDS011;26723;57.478;12.066;2023-07-30T09:23:14;1.92;;;0.90;;
40995;SDS011;26723;57.478;12.066;2023-07-30T09:26:25;1.08;;;0.65;;
40995;SDS011;26723;57.478;12.066;2023-07-30T09:29:33;0.65;;;0.65;;
40995;SDS011;26723;57.478;12.066;2023-07-30T09:32:43;2.63;;;0.95;;
40995;SDS011;26723;57.478;12.066;2023-07-30T09:35:52;0.95;;;0.52;;
40995;SDS011;26723;57.478;12.066;2023-07-30T09:39:02;0.60;;;0.60;;
40995;SDS011;26723;57.478;12.066;2023-07-30T09:42:10;2.83;;;0.70;;
40995;SDS011;26723;57.478;12.066;2023-07-30T09:45:20;1.70;;;0.60;;
40995;SDS011;26723;57.478;12.066;2023-07-30T09:48:31;0.68;;;0.68;;
40995;SDS011;26723;57.478;12.066;2023-07-30T09:51:41;1.33;;;0.93;;
40995;SDS011;26723;57.478;12.066;2023-07-30T09:54:49;0.50;;;0.50;;
40995;SDS011;26723;57.478;12.066;2023-07-30T09:58:00;2.85;;;0.80;;
40995;SDS011;26723;57.478;12.066;2023-07-30T10:01:08;0.60;;;0.60;;
40995;SDS011;26723;57.478;12.066;2023-07-30T10:04:19;2.83;;;0.63;;
40995;SDS011;26723;57.478;12.066;2023-07-30T10:07:29;0.95;;;0.80;;
40995;SDS011;26723;57.478;12.066;2023-07-30T10:10:38;1.85;;;0.57;;
40995;SDS011;26723;57.478;12.066;2023-07-30T10:13:46;2.25;;;0.70;;
40995;SDS011;26723;57.478;12.066;2023-07-30T10:16:56;0.68;;;0.63;;
40995;SDS011;26723;57.478;12.066;2023-07-30T10:20:22;1.85;;;0.90;;
40995;SDS011;26723;57.478;12.066;2023-07-30T10:23:32;0.73;;;0.70;;
40995;SDS011;26723;57.478;12.066;2023-07-30T10:26:41;0.40;;;0.40;;
40995;SDS011;26723;57.478;12.066;2023-07-30T10:29:49;0.88;;;0.70;;
40995;SDS011;26723;57.478;12.066;2023-07-30T10:33:16;1.27;;;0.70;;
40995;SDS011;26723;57.478;12.066;2023-07-30T10:36:31;0.57;;;0.57;;
40995;SDS011;26723;57.478;12.066;2023-07-30T10:39:40;4.72;;;0.60;;
40995;SDS011;26723;57.478;12.066;2023-07-30T10:42:49;1.13;;;0.47;;
40995;SDS011;26723;57.478;12.066;2023-07-30T10:45:59;0.60;;;0.60;;
40995;SDS011;26723;57.478;12.066;2023-07-30T10:49:07;2.17;;;0.50;;
40995;SDS011;26723;57.478;12.066;2023-07-30T10:52:20;0.70;;;0.68;;
40995;SDS011;26723;57.478;12.066;2023-07-30T10:55:34;0.50;;;0.50;;
40995;SDS011;26723;57.478;12.066;2023-07-30T10:58:43;1.25;;;1.25;;
40995;SDS011;26723;57.478;12.066;2023-07-30T11:01:57;0.75;;;0.50;;
40995;SDS011;26723;57.478;12.066;2023-07-30T11:05:12;0.70;;;0.63;;
40995;SDS011;26723;57.478;12.066;2023-07-30T11:08:30;0.80;;;0.60;;
40995;SDS011;26723;57.478;12.066;2023-07-30T11:11:40;0.57;;;0.52;;
40995;SDS011;26723;57.478;12.066;2023-07-30T11:14:49;0.60;;;0.60;;
40995;SDS011;26723;57.478;12.066;2023-07-30T11:17:58;0.60;;;0.60;;
40995;SDS011;26723;57.478;12.066;2023-07-30T11:21:08;0.55;;;0.55;;
40995;SDS011;26723;57.478;12.066;2023-07-30T11:24:19;3.05;;;0.60;;
40995;SDS011;26723;57.478;12.066;2023-07-30T11:27:44;0.82;;;0.68;;
40995;SDS011;26723;57.478;12.066;2023-07-30T11:30:53;1.80;;;0.70;;
40995;SDS011;26723;57.478;12.066;2023-07-30T11:34:02;0.75;;;0.73;;
40995;SDS011;26723;57.478;12.066;2023-07-30T11:37:10;0.52;;;0.52;;
40995;SDS011;26723;57.478;12.066;2023-07-30T11:40:20;1.25;;;0.80;;
40995;SDS011;26723;57.478;12.066;2023-07-30T11:43:29;1.85;;;0.98;;
40995;SDS011;26723;57.478;12.066;2023-07-30T11:46:38;1.08;;;0.60;;
40995;SDS011;26723;57.478;12.066;2023-07-30T11:49:54;1.27;;;1.10;;
40995;SDS011;26723;57.478;12.066;2023-07-30T11:53:03;1.92;;;0.68;;
40995;SDS011;26723;57.478;12.066;2023-07-30T11:56:16;1.77;;;0.98;;
40995;SDS011;26723;57.478;12.066;2023-07-30T11:59:26;0.77;;;0.30;;
40995;SDS011;26723;57.478;12.066;2023-07-30T12:02:34;1.35;;;0.75;;
40995;SDS011;26723;57.478;12.066;2023-07-30T12:05:43;1.52;;;0.50;;
40995;SDS011;26723;57.478;12.066;2023-07-30T12:08:51;0.93;;;0.47;;
40995;SDS011;26723;57.478;12.066;2023-07-30T12:12:02;1.75;;;0.70;;
40995;SDS011;26723;57.478;12.066;2023-07-30T12:15:11;2.83;;;0.88;;
40995;SDS011;26723;57.478;12.066;2023-07-30T12:18:20;0.43;;;0.43;;
40995;SDS011;26723;57.478;12.066;2023-07-30T12:21:30;1.00;;;0.40;;
40995;SDS011;26723;57.478;12.066;2023-07-30T12:24:38;1.48;;;0.60;;
40995;SDS011;26723;57.478;12.066;2023-07-30T12:27:49;0.60;;;0.60;;
40995;SDS011;26723;57.478;12.066;2023-07-30T12:30:58;1.30;;;1.00;;
40995;SDS011;26723;57.478;12.066;2023-07-30T12:34:07;1.50;;;0.80;;
40995;SDS011;26723;57.478;12.066;2023-07-30T12:37:15;3.33;;;1.08;;
40995;SDS011;26723;57.478;12.066;2023-07-30T12:40:24;4.68;;;0.90;;
40995;SDS011;26723;57.478;12.066;2023-07-30T12:43:34;0.63;;;0.63;;
40995;SDS011;26723;57.478;12.066;2023-07-30T12:46:42;1.27;;;1.13;;
40995;SDS011;26723;57.478;12.066;2023-07-30T12:49:51;0.73;;;0.68;;
40995;SDS011;26723;57.478;12.066;2023-07-30T12:52:59;0.65;;;0.65;;
40995;SDS011;26723;57.478;12.066;2023-07-30T12:56:08;2.28;;;0.80;;
40995;SDS011;26723;57.478;12.066;2023-07-30T12:59:18;0.85;;;0.82;;
40995;SDS011;26723;57.478;12.066;2023-07-30T13:02:26;1.75;;;0.68;;
40995;SDS011;26723;57.478;12.066;2023-07-30T13:05:35;1.27;;;0.98;;
40995;SDS011;26723;57.478;12.066;2023-07-30T13:08:43;1.00;;;0.70;;
40995;SDS011;26723;57.478;12.066;2023-07-30T13:11:52;0.88;;;0.88;;
40995;SDS011;26723;57.478;12.066;2023-07-30T13:15:02;1.27;;;1.13;;
40995;SDS011;26723;57.478;12.066;2023-07-30T13:18:11;0.80;;;0.80;;
40995;SDS011;26723;57.478;12.066;2023-07-30T13:21:20;1.05;;;0.75;;
40995;SDS011;26723;57.478;12.066;2023-07-30T13:24:29;1.80;;;0.85;;
40995;SDS011;26723;57.478;12.066;2023-07-30T13:27:38;1.27;;;0.70;;
40995;SDS011;26723;57.478;12.066;2023-07-30T13:30:48;0.70;;;0.70;;
40995;SDS011;26723;57.478;12.066;2023-07-30T13:33:57;0.82;;;0.70;;
40995;SDS011;26723;57.478;12.066;2023-07-30T13:37:06;3.08;;;0.80;;
40995;SDS011;26723;57.478;12.066;2023-07-30T13:40:15;0.65;;;0.65;;
40995;SDS011;26723;57.478;12.066;2023-07-30T13:43:24;0.75;;;0.73;;
40995;SDS011;26723;57.478;12.066;2023-07-30T13:46:34;0.70;;;0.70;;
40995;SDS011;26723;57.478;12.066;2023-07-30T13:49:42;0.90;;;0.90;;
40995;SDS011;26723;57.478;12.066;2023-07-30T13:52:51;2.50;;;1.23;;
40995;SDS011;26723;57.478;12.066;2023-07-30T13:55:59;0.70;;;0.70;;
40995;SDS011;26723;57.478;12.066;2023-07-30T13:59:09;1.85;;;0.63;;
40995;SDS011;26723;57.478;12.066;2023-07-30T14:02:19;3.50;;;1.00;;
40995;SDS011;26723;57.478;12.066;2023-07-30T14:05:28;1.75;;;0.77;;
40995;SDS011;26723;57.478;12.066;2023-07-30T14:08:37;0.70;;;0.70;;
40995;SDS011;26723;57.478;12.066;2023-07-30T14:11:45;1.23;;;1.13;;
40995;SDS011;26723;57.478;12.066;2023-07-30T14:14:53;1.55;;;0.70;;
40995;SDS011;26723;57.478;12.066;2023-07-30T14:18:03;1.20;;;0.82;;
40995;SDS011;26723;57.478;12.066;2023-07-30T14:21:13;0.60;;;0.60;;
40995;SDS011;26723;57.478;12.066;2023-07-30T14:24:22;0.85;;;0.77;;
40995;SDS011;26723;57.478;12.066;2023-07-30T14:27:31;1.30;;;1.05;;
40995;SDS011;26723;57.478;12.066;2023-07-30T14:30:39;1.10;;;0.70;;
40995;SDS011;26723;57.478;12.066;2023-07-30T14:33:52;1.88;;;0.90;;
40995;SDS011;26723;57.478;12.066;2023-07-30T14:37:01;0.90;;;0.90;;
40995;SDS011;26723;57.478;12.066;2023-07-30T14:40:09;0.70;;;0.70;;
40995;SDS011;26723;57.478;12.066;2023-07-30T14:43:18;0.95;;;0.88;;
40995;SDS011;26723;57.478;12.066;2023-07-30T14:46:27;2.83;;;0.93;;
40995;SDS011;26723;57.478;12.066;2023-07-30T14:49:37;0.52;;;0.50;;
40995;SDS011;26723;57.478;12.066;2023-07-30T14:52:46;1.52;;;0.70;;
40995;SDS011;26723;57.478;12.066;2023-07-30T14:55:54;0.70;;;0.68;;
40995;SDS011;26723;57.478;12.066;2023-07-30T14:59:04;0.80;;;0.80;;
40995;SDS011;26723;57.478;12.066;2023-07-30T15:02:13;1.23;;;0.80;;
40995;SDS011;26723;57.478;12.066;2023-07-30T15:05:23;0.77;;;0.77;;
40995;SDS011;26723;57.478;12.066;2023-07-30T15:08:31;0.93;;;0.50;;
40995;SDS011;26723;57.478;12.066;2023-07-30T15:11:40;3.92;;;0.80;;
40995;SDS011;26723;57.478;12.066;2023-07-30T15:14:48;1.10;;;0.73;;
40995;SDS011;26723;57.478;12.066;2023-07-30T15:17:56;0.50;;;0.50;;
40995;SDS011;26723;57.478;12.066;2023-07-30T15:21:06;1.58;;;0.55;;
40995;SDS011;26723;57.478;12.066;2023-07-30T15:24:17;0.28;;;0.28;;
40995;SDS011;26723;57.478;12.066;2023-07-30T15:27:25;0.22;;;0.22;;
40995;SDS011;26723;57.478;12.066;2023-07-30T15:30:35;0.47;;;0.40;;
40995;SDS011;26723;57.478;12.066;2023-07-30T15:33:45;0.10;;;0.10;;
40995;SDS011;26723;57.478;12.066;2023-07-30T15:36:55;0.30;;;0.22;;
40995;SDS011;26723;57.478;12.066;2023-07-30T15:40:04;0.13;;;0.13;;
40995;SDS011;26723;57.478;12.066;2023-07-30T15:43:14;0.98;;;0.20;;
40995;SDS011;26723;57.478;12.066;2023-07-30T15:46:22;1.33;;;0.22;;
40995;SDS011;26723;57.478;12.066;2023-07-30T15:49:31;0.32;;;0.32;;
40995;SDS011;26723;57.478;12.066;2023-07-30T15:52:41;1.23;;;0.57;;
40995;SDS011;26723;57.478;12.066;2023-07-30T15:55:50;1.13;;;0.32;;
40995;SDS011;26723;57.478;12.066;2023-07-30T15:58:58;0.10;;;0.10;;
40995;SDS011;26723;57.478;12.066;2023-07-30T16:02:07;0.47;;;0.35;;
40995;SDS011;26723;57.478;12.066;2023-07-30T16:05:16;0.40;;;0.40;;
40995;SDS011;26723;57.478;12.066;2023-07-30T16:08:26;0.38;;;0.20;;
40995;SDS011;26723;57.478;12.066;2023-07-30T16:11:34;1.92;;;0.30;;
40995;SDS011;26723;57.478;12.066;2023-07-30T16:14:45;0.30;;;0.30;;
40995;SDS011;26723;57.478;12.066;2023-07-30T16:17:53;0.10;;;0.10;;
40995;SDS011;26723;57.478;12.066;2023-07-30T16:21:02;0.65;;;0.32;;
40995;SDS011;26723;57.478;12.066;2023-07-30T16:24:13;0.30;;;0.30;;
40995;SDS011;26723;57.478;12.066;2023-07-30T16:27:21;0.20;;;0.10;;
40995;SDS011;26723;57.478;12.066;2023-07-30T16:30:30;0.38;;;0.38;;
40995;SDS011;26723;57.478;12.066;2023-07-30T16:33:39;0.20;;;0.20;;
40995;SDS011;26723;57.478;12.066;2023-07-30T16:36:47;2.70;;;0.30;;
40995;SDS011;26723;57.478;12.066;2023-07-30T16:39:57;0.85;;;0.20;;
40995;SDS011;26723;57.478;12.066;2023-07-30T16:43:06;0.30;;;0.30;;
40995;SDS011;26723;57.478;12.066;2023-07-30T16:46:15;0.38;;;0.38;;
40995;SDS011;26723;57.478;12.066;2023-07-30T16:49:23;0.40;;;0.38;;
40995;SDS011;26723;57.478;12.066;2023-07-30T16:52:32;1.02;;;0.10;;
40995;SDS011;26723;57.478;12.066;2023-07-30T16:55:42;0.28;;;0.28;;
40995;SDS011;26723;57.478;12.066;2023-07-30T16:58:51;0.40;;;0.20;;
40995;SDS011;26723;57.478;12.066;2023-07-30T17:02:01;0.28;;;0.28;;
40995;SDS011;26723;57.478;12.066;2023-07-30T17:05:09;0.35;;;0.35;;
40995;SDS011;26723;57.478;12.066;2023-07-30T17:08:18;0.20;;;0.20;;
40995;SDS011;26723;57.478;12.066;2023-07-30T17:11:30;0.40;;;0.40;;
40995;SDS011;26723;57.478;12.066;2023-07-30T17:14:39;1.88;;;0.30;;
40995;SDS011;26723;57.478;12.066;2023-07-30T17:17:47;3.13;;;0.40;;
40995;SDS011;26723;57.478;12.066;2023-07-30T17:20:56;1.25;;;0.30;;
40995;SDS011;26723;57.478;12.066;2023-07-30T17:24:05;0.32;;;0.32;;
40995;SDS011;26723;57.478;12.066;2023-07-30T17:27:15;0.17;;;0.17;;
40995;SDS011;26723;57.478;12.066;2023-07-30T17:30:24;0.52;;;0.38;;
40995;SDS011;26723;57.478;12.066;2023-07-30T17:33:33;1.77;;;0.43;;
40995;SDS011;26723;57.478;12.066;2023-07-30T17:36:41;0.88;;;0.88;;
40995;SDS011;26723;57.478;12.066;2023-07-30T17:39:50;0.40;;;0.40;;
40995;SDS011;26723;57.478;12.066;2023-07-30T17:43:01;0.43;;;0.43;;
40995;SDS011;26723;57.478;12.066;2023-07-30T17:46:16;0.52;;;0.43;;
40995;SDS011;26723;57.478;12.066;2023-07-30T17:49:34;1.98;;;0.63;;
40995;SDS011;26723;57.478;12.066;2023-07-30T17:52:42;0.60;;;0.60;;
40995;SDS011;26723;57.478;12.066;2023-07-30T17:55:51;1.02;;;0.57;;
40995;SDS011;26723;57.478;12.066;2023-07-30T17:59:01;0.43;;;0.43;;
40995;SDS011;26723;57.478;12.066;2023-07-30T18:02:10;1.63;;;0.45;;
40995;SDS011;26723;57.478;12.066;2023-07-30T18:05:19;0.40;;;0.40;;
40995;SDS011;26723;57.478;12.066;2023-07-30T18:08:29;0.28;;;0.20;;
40995;SDS011;26723;57.478;12.066;2023-07-30T18:11:38;0.15;;;0.15;;
40995;SDS011;26723;57.478;12.066;2023-07-30T18:14:49;1.65;;;0.40;;
40995;SDS011;26723;57.478;12.066;2023-07-30T18:17:57;0.93;;;0.55;;
40995;SDS011;26723;57.478;12.066;2023-07-30T18:21:10;0.22;;;0.22;;
40995;SDS011;26723;57.478;12.066;2023-07-30T18:24:19;0.73;;;0.28;;
40995;SDS011;26723;57.478;12.066;2023-07-30T18:27:27;0.30;;;0.30;;
40995;SDS011;26723;57.478;12.066;2023-07-30T18:30:37;0.68;;;0.38;;
40995;SDS011;26723;57.478;12.066;2023-07-30T18:33:45;1.35;;;0.20;;
40995;SDS011;26723;57.478;12.066;2023-07-30T18:36:54;1.27;;;0.30;;
40995;SDS011;26723;57.478;12.066;2023-07-30T18:40:03;0.40;;;0.40;;
40995;SDS011;26723;57.478;12.066;2023-07-30T18:43:12;0.17;;;0.17;;